Portada
METAR-TAF:

METAR-TAF

Aeropuertos :

Istres, Francia

latitud: 43-31N, longitud: 004-56E, altitud: 23 m

Observación

El informe se hizo hace 16 minutos, a las 03:30 UTC
Viento 6 kt del norte-noreste
Temperatura 19°C
Humedad 100%
Presión 1018 hPa
Visibilidad 10 km o más
sin nubes por debajo de 1500 m y sin presencia de cumulonimbus.

METAR: LFMI 200330Z AUTO 02006KT CAVOK 19/19 Q1018 NOSIG

Hora: 05:46 (03:46 UTC)

Pronóstico

El informe se hizo hace 1 hora y 46 minutos, a las 02:00 UTC
Pronóstico válido del 20 a las 03 UTC al 21 a las 03 UTC
Viento 3 kt con dirección variable
Visibilidad 10 km o más
sin nubes por debajo de 1500 m y sin presencia de cumulonimbus.
Temporalmente
del 20 a las 09 UTC al 20 a las 16 UTC
Viento 11 kt del sur

TAF: LFMI 200200Z 2003/2103 VRB03KT CAVOK TEMPO 2009/2016 18011KT

Observaciones y pronósticos meteorológicos de más de 4000 aeropuertos (mensajes METAR y TAF).

Los puntos amarillos y rojos representan las estaciones disponibles.

Ponga el ratón en el punto deseado para ver el nombre de la estación.

Haga clic para ver las observaciones y los pronósticos meteorológicos.

Para cambiar el mapa : haga clic en los botones verdes con una cruz de color negro para hacer un zoom, en el botón verde con un guión para alejar o en las flechas verdes para mapas adyacentes.


METAR-TAF: